Time;durP1;ratioP1;P1;durP2;ratioP2;P2;SDS_P1;SDS_P2;PMS_P1;PMS_P2;Temp;Humidity;BMP_temperature;BMP_pressure;BME280_temperature;BME280_humidity;BME280_pressure;Samples;Min_cycle;Max_cycle;Signal;HPM_P1;HPM_P2
2021/08/25 00:00:01;;;;;;;3.42;2.05;;;17.70;57.50;;;;;;2453755;55;20984;-85
2021/08/25 00:02:28;;;;;;;3.72;2.17;;;17.70;57.50;;;;;;2453334;55;20944;-83
2021/08/25 00:04:54;;;;;;;5.47;2.17;;;17.60;57.40;;;;;;2453407;55;21000;-84
2021/08/25 00:07:21;;;;;;;3.40;1.90;;;17.60;57.40;;;;;;2454636;55;20944;-84
2021/08/25 00:09:47;;;;;;;3.58;1.98;;;17.60;57.50;;;;;;2484275;55;20973;-84
2021/08/25 00:12:14;;;;;;;3.12;1.98;;;17.50;57.40;;;;;;2256881;55;20997;-85
2021/08/25 00:14:41;;;;;;;3.58;2.05;;;17.50;57.50;;;;;;2252691;55;20978;-85
2021/08/25 00:17:08;;;;;;;3.90;2.15;;;17.50;57.60;;;;;;2240424;55;20975;-85
2021/08/25 00:19:34;;;;;;;3.78;2.25;;;17.50;57.60;;;;;;2483982;55;21602;-85
2021/08/25 00:22:01;;;;;;;3.58;2.15;;;17.40;57.60;;;;;;2472074;55;20929;-83
2021/08/25 00:24:27;;;;;;;3.25;1.92;;;17.40;57.60;;;;;;2242492;55;20956;-85
2021/08/25 00:26:53;;;;;;;3.75;2.10;;;17.40;57.70;;;;;;2484419;55;21021;-86
2021/08/25 00:29:20;;;;;;;3.70;1.67;;;17.30;57.60;;;;;;2457446;55;21037;-85
2021/08/25 00:31:47;;;;;;;3.33;1.60;;;17.30;57.60;;;;;;2232653;55;20992;-84
2021/08/25 00:34:13;;;;;;;3.50;2.03;;;17.30;57.70;;;;;;2453467;55;21119;-84
2021/08/25 00:36:39;;;;;;;3.80;2.30;;;17.30;57.70;;;;;;2454223;55;20984;-84
2021/08/25 00:39:06;;;;;;;4.50;2.35;;;17.20;57.70;;;;;;2455200;55;20956;-86
2021/08/25 00:41:32;;;;;;;3.72;2.22;;;17.20;57.70;;;;;;2232849;55;21043;-84
2021/08/25 00:43:58;;;;;;;4.00;2.65;;;17.30;57.80;;;;;;2260849;55;20970;-84
2021/08/25 00:46:26;;;;;;;3.62;2.00;;;17.20;57.80;;;;;;2462952;55;21034;-86
2021/08/25 00:48:53;;;;;;;4.75;2.15;;;17.20;57.80;;;;;;2254148;55;21079;-86
2021/08/25 00:51:24;;;;;;;3.70;2.30;;;17.10;57.70;;;;;;2218182;55;21087;-86
2021/08/25 00:53:51;;;;;;;3.60;2.40;;;17.10;57.70;;;;;;2238070;55;20978;-85
2021/08/25 00:56:17;;;;;;;5.45;2.47;;;17.10;57.60;;;;;;2259911;55;21006;-83
2021/08/25 00:58:43;;;;;;;3.22;1.83;;;17.00;57.50;;;;;;2462885;55;21459;-84
2021/08/25 01:01:23;;;;;;;3.83;2.25;;;17.00;57.60;;;;;;2484938;55;20970;-83
2021/08/25 01:03:59;;;;;;;4.45;2.50;;;16.90;57.80;;;;;;2232723;55;20964;-84
2021/08/25 01:06:26;;;;;;;4.10;2.20;;;16.90;57.80;;;;;;2454573;55;20997;-83
2021/08/25 01:08:53;;;;;;;3.30;1.83;;;16.80;57.60;;;;;;2484576;55;21029;-85
2021/08/25 01:11:19;;;;;;;3.30;2.03;;;16.80;57.70;;;;;;2460144;55;21002;-84
2021/08/25 01:13:46;;;;;;;4.28;2.47;;;16.80;57.70;;;;;;2479288;55;21354;-83
2021/08/25 01:16:12;;;;;;;4.03;2.33;;;16.70;57.70;;;;;;2260074;55;21013;-83
2021/08/25 01:18:38;;;;;;;4.15;2.50;;;16.70;57.70;;;;;;2472095;54;20946;-84
2021/08/25 01:21:05;;;;;;;4.62;2.60;;;16.70;57.80;;;;;;2468120;55;21915;-84
2021/08/25 01:23:40;;;;;;;4.35;2.83;;;16.60;58.40;;;;;;2482439;55;20968;-87
2021/08/25 01:26:06;;;;;;;4.18;2.65;;;16.60;58.10;;;;;;2472012;55;21021;-83
2021/08/25 01:28:36;;;;;;;4.85;2.75;;;16.60;58.00;;;;;;2467128;55;21091;-85
2021/08/25 01:31:03;;;;;;;4.85;2.78;;;16.60;58.30;;;;;;2455320;55;20951;-84
2021/08/25 01:33:30;;;;;;;5.22;3.12;;;16.50;58.10;;;;;;2454940;55;20972;-83
2021/08/25 01:35:56;;;;;;;4.37;2.25;;;16.50;58.20;;;;;;2453054;55;20982;-83
2021/08/25 01:38:50;;;;;;;4.55;2.50;;;16.50;58.30;;;;;;2477187;55;20997;-85
2021/08/25 01:41:23;;;;;;;3.50;2.37;;;16.50;58.60;;;;;;2489278;55;20950;-84
2021/08/25 01:44:07;;;;;;;4.10;2.53;;;16.50;58.40;;;;;;2242456;55;20948;-86
2021/08/25 01:46:35;;;;;;;4.50;2.28;;;16.50;58.60;;;;;;2485096;55;20962;-83
2021/08/25 01:49:05;;;;;;;4.72;2.97;;;16.50;58.20;;;;;;2237376;55;20986;-84
2021/08/25 01:51:31;;;;;;;4.43;2.67;;;16.50;58.30;;;;;;2446068;55;21091;-85
2021/08/25 01:53:58;;;;;;;4.50;2.62;;;16.40;58.30;;;;;;2232776;55;20952;-84
2021/08/25 01:56:24;;;;;;;5.07;2.97;;;16.40;58.30;;;;;;2480461;55;21504;-84
2021/08/25 01:58:52;;;;;;;4.20;2.45;;;16.40;58.40;;;;;;2234815;55;21067;-85
2021/08/25 02:01:18;;;;;;;5.40;2.83;;;16.40;58.40;;;;;;2453985;55;21032;-84
2021/08/25 02:03:44;;;;;;;3.80;2.37;;;16.40;58.40;;;;;;2453661;55;20972;-85
2021/08/25 02:06:10;;;;;;;4.28;2.78;;;16.40;58.50;;;;;;2249591;55;20969;-83
2021/08/25 02:08:37;;;;;;;3.90;2.47;;;16.40;58.50;;;;;;2467773;55;20952;-85
2021/08/25 02:11:03;;;;;;;4.25;2.60;;;16.40;58.60;;;;;;2248546;55;20958;-84
2021/08/25 02:13:30;;;;;;;5.18;3.08;;;16.40;58.60;;;;;;2245885;55;22050;-84
2021/08/25 02:15:56;;;;;;;4.90;3.17;;;16.30;58.50;;;;;;2454359;55;21063;-84
2021/08/25 02:18:22;;;;;;;5.03;2.80;;;16.30;58.60;;;;;;2252234;55;22076;-83
2021/08/25 02:20:48;;;;;;;4.43;2.72;;;16.30;58.60;;;;;;2464832;55;21475;-84
2021/08/25 02:23:15;;;;;;;3.95;2.25;;;16.30;58.60;;;;;;2232539;55;20952;-85
2021/08/25 02:25:41;;;;;;;4.53;2.25;;;16.30;58.60;;;;;;2452777;55;20988;-85
2021/08/25 02:28:07;;;;;;;5.93;2.40;;;16.30;58.60;;;;;;2259842;55;21040;-85
2021/08/25 02:30:34;;;;;;;4.22;2.47;;;16.30;58.60;;;;;;2253976;55;20931;-85
2021/08/25 02:33:00;;;;;;;6.10;2.20;;;16.30;58.60;;;;;;2465605;55;21020;-82
2021/08/25 02:35:26;;;;;;;4.47;2.35;;;16.20;58.60;;;;;;2232937;55;21783;-83
2021/08/25 02:37:53;;;;;;;4.35;2.87;;;16.20;58.60;;;;;;2483837;55;20997;-84
2021/08/25 02:40:19;;;;;;;3.83;2.30;;;16.20;58.60;;;;;;2463209;55;21058;-83
2021/08/25 02:42:45;;;;;;;4.85;2.60;;;16.20;58.60;;;;;;2254362;55;21080;-85
2021/08/25 02:45:12;;;;;;;4.57;2.53;;;16.20;58.50;;;;;;2475528;55;20943;-83
2021/08/25 02:47:38;;;;;;;4.03;2.40;;;16.20;58.60;;;;;;2459795;55;20995;-85
2021/08/25 02:50:07;;;;;;;3.90;2.08;;;16.10;58.50;;;;;;2466408;55;21158;-84
2021/08/25 02:52:33;;;;;;;5.45;3.22;;;16.10;58.60;;;;;;2471164;55;21638;-83
2021/08/25 02:55:00;;;;;;;4.62;2.22;;;16.10;58.60;;;;;;2471913;55;21428;-83
2021/08/25 02:57:26;;;;;;;5.28;2.70;;;16.10;58.60;;;;;;2261689;55;20994;-84
2021/08/25 02:59:53;;;;;;;4.35;2.37;;;16.10;58.60;;;;;;2470553;55;20968;-84
2021/08/25 03:02:19;;;;;;;3.87;2.35;;;16.00;58.60;;;;;;2482986;55;20990;-83
2021/08/25 03:04:45;;;;;;;3.87;2.50;;;16.00;58.60;;;;;;2482761;55;21001;-83
2021/08/25 03:07:11;;;;;;;5.53;3.50;;;16.00;58.70;;;;;;2477030;55;20931;-86
2021/08/25 03:09:38;;;;;;;5.25;3.05;;;16.00;58.80;;;;;;2241869;55;20975;-84
2021/08/25 03:12:05;;;;;;;4.90;3.10;;;16.00;58.90;;;;;;2232677;55;21621;-85
2021/08/25 03:14:31;;;;;;;5.53;3.37;;;16.00;59.00;;;;;;2452596;55;21003;-83
2021/08/25 03:16:58;;;;;;;6.70;3.55;;;16.00;59.10;;;;;;2259779;55;20998;-84
2021/08/25 03:19:24;;;;;;;5.57;3.62;;;15.90;59.10;;;;;;2231844;55;21899;-84
2021/08/25 03:21:50;;;;;;;5.43;3.55;;;16.00;59.30;;;;;;2247263;55;20974;-84
2021/08/25 03:24:17;;;;;;;5.78;4.15;;;15.90;59.30;;;;;;2475948;55;21062;-83
2021/08/25 03:26:43;;;;;;;6.05;4.18;;;16.00;59.60;;;;;;2256085;55;21000;-83
2021/08/25 03:29:09;;;;;;;7.37;5.00;;;16.00;59.70;;;;;;2480578;55;20950;-85
2021/08/25 03:31:36;;;;;;;7.95;4.35;;;16.00;59.80;;;;;;2481875;55;21023;-86
2021/08/25 03:34:02;;;;;;;6.82;4.00;;;16.00;59.80;;;;;;2258448;55;21022;-84
2021/08/25 03:36:28;;;;;;;6.80;3.55;;;16.00;59.80;;;;;;2457680;55;22102;-83
2021/08/25 03:38:55;;;;;;;5.37;3.72;;;16.00;59.90;;;;;;2230908;55;20975;-85
2021/08/25 03:41:21;;;;;;;6.80;4.43;;;16.00;59.90;;;;;;2458223;55;20997;-84
2021/08/25 03:43:47;;;;;;;7.97;4.60;;;16.00;59.90;;;;;;2476531;54;20976;-84
2021/08/25 03:46:14;;;;;;;6.60;4.50;;;16.00;60.00;;;;;;2470613;55;20974;-82
2021/08/25 03:48:41;;;;;;;7.93;5.28;;;16.10;60.10;;;;;;2462531;55;21966;-84
2021/08/25 03:51:07;;;;;;;8.30;5.40;;;16.10;60.30;;;;;;2483111;55;21184;-83
2021/08/25 03:53:33;;;;;;;7.35;5.12;;;16.10;60.30;;;;;;2474577;55;21286;-84
2021/08/25 03:55:59;;;;;;;6.90;4.53;;;16.10;60.30;;;;;;2472610;55;21031;-83
2021/08/25 03:58:26;;;;;;;6.90;4.85;;;16.10;60.30;;;;;;2471981;55;20974;-82
2021/08/25 04:00:53;;;;;;;6.80;4.72;;;16.10;60.30;;;;;;2472771;55;20964;-83
2021/08/25 04:03:19;;;;;;;6.15;4.32;;;16.20;60.50;;;;;;2461172;55;21009;-84
2021/08/25 04:05:46;;;;;;;7.57;4.37;;;16.20;60.50;;;;;;2479031;55;21009;-84
2021/08/25 04:08:12;;;;;;;6.10;4.00;;;16.30;60.60;;;;;;2471895;55;21481;-84
2021/08/25 04:10:41;;;;;;;7.07;4.53;;;16.20;60.50;;;;;;2234441;55;20972;-82
2021/08/25 04:13:08;;;;;;;7.35;4.60;;;16.20;60.60;;;;;;2449263;55;20960;-85
2021/08/25 04:15:34;;;;;;;7.22;5.18;;;16.20;60.50;;;;;;2455415;55;20966;-82
2021/08/25 04:18:00;;;;;;;5.53;3.83;;;16.30;60.50;;;;;;2466966;55;21031;-83
2021/08/25 04:20:26;;;;;;;7.20;4.15;;;16.30;60.50;;;;;;2471874;54;20965;-83
2021/08/25 04:22:53;;;;;;;5.95;3.90;;;16.30;60.50;;;;;;2451205;55;20953;-83
2021/08/25 04:25:19;;;;;;;6.95;4.45;;;16.30;60.60;;;;;;2259502;55;20970;-84
2021/08/25 04:27:45;;;;;;;5.78;3.92;;;16.40;60.70;;;;;;2230501;55;21282;-83
2021/08/25 04:30:11;;;;;;;7.18;4.12;;;16.40;60.80;;;;;;2472449;55;20934;-83
2021/08/25 04:32:38;;;;;;;6.03;4.28;;;16.40;60.90;;;;;;2246956;55;21066;-83
2021/08/25 04:35:05;;;;;;;7.30;5.07;;;16.40;60.90;;;;;;2250574;55;21077;-84
2021/08/25 04:37:32;;;;;;;5.45;3.97;;;16.40;60.90;;;;;;2249031;55;22039;-83
2021/08/25 04:39:58;;;;;;;6.25;4.07;;;16.50;61.00;;;;;;2469279;55;20978;-86
2021/08/25 04:42:24;;;;;;;9.02;4.62;;;16.50;60.90;;;;;;2257020;55;20942;-84
2021/08/25 04:44:50;;;;;;;6.72;4.72;;;16.50;60.90;;;;;;2479298;55;21010;-84
2021/08/25 04:47:17;;;;;;;6.37;4.55;;;16.50;61.00;;;;;;2479803;55;20942;-82
2021/08/25 04:49:43;;;;;;;7.72;4.18;;;16.50;61.00;;;;;;2250821;55;20968;-84
2021/08/25 04:52:13;;;;;;;7.53;5.22;;;16.60;61.00;;;;;;2450585;55;20932;-83
2021/08/25 04:54:40;;;;;;;6.50;4.50;;;16.60;60.90;;;;;;2244277;55;21054;-83
2021/08/25 04:57:06;;;;;;;5.40;4.05;;;16.60;60.80;;;;;;2481288;55;21039;-84
2021/08/25 04:59:32;;;;;;;6.43;4.40;;;16.50;60.50;;;;;;2471907;55;21020;-83
2021/08/25 05:01:59;;;;;;;5.50;3.72;;;16.60;60.60;;;;;;2469939;55;20969;-84
2021/08/25 05:04:25;;;;;;;5.60;3.90;;;16.60;60.50;;;;;;2458284;55;20994;-84
2021/08/25 05:06:52;;;;;;;6.55;4.55;;;16.60;60.40;;;;;;2477757;55;21042;-83
2021/08/25 05:09:18;;;;;;;5.97;4.18;;;16.60;60.30;;;;;;2253930;55;21017;-84
2021/08/25 05:11:44;;;;;;;6.25;4.50;;;16.60;60.30;;;;;;2262650;55;21034;-84
2021/08/25 05:14:11;;;;;;;5.78;3.85;;;16.60;60.30;;;;;;2474071;54;21071;-83
2021/08/25 05:16:37;;;;;;;6.78;4.18;;;16.60;61.00;;;;;;2448078;55;20956;-84
2021/08/25 05:19:04;;;;;;;7.47;4.05;;;16.50;60.20;;;;;;2227855;55;20996;-83
2021/08/25 05:21:30;;;;;;;6.50;4.37;;;16.50;60.30;;;;;;2256203;55;20938;-84
2021/08/25 05:23:56;;;;;;;6.25;4.10;;;16.50;60.30;;;;;;2244176;55;22368;-84
2021/08/25 05:26:23;;;;;;;6.55;4.57;;;16.50;60.30;;;;;;2240503;55;22310;-84
2021/08/25 05:28:50;;;;;;;5.97;4.12;;;16.50;60.40;;;;;;2478565;55;21023;-84
2021/08/25 05:31:16;;;;;;;6.80;4.60;;;16.50;60.50;;;;;;2449008;55;21019;-87
2021/08/25 05:33:43;;;;;;;8.50;4.68;;;16.50;60.50;;;;;;2228645;55;20953;-82
2021/08/25 05:36:09;;;;;;;6.90;4.60;;;16.50;60.50;;;;;;2449190;55;20997;-85
2021/08/25 05:38:36;;;;;;;5.97;3.97;;;16.50;60.50;;;;;;2234948;55;20949;-85
2021/08/25 05:41:02;;;;;;;5.90;4.22;;;16.50;60.40;;;;;;2475217;55;21467;-84
2021/08/25 05:43:29;;;;;;;6.95;5.03;;;16.50;60.50;;;;;;2227909;55;20960;-84
2021/08/25 05:45:55;;;;;;;6.22;4.00;;;16.50;60.50;;;;;;2228325;55;20989;-84
2021/08/25 05:48:21;;;;;;;5.70;3.87;;;16.40;60.40;;;;;;2256288;55;21365;-83
2021/08/25 05:50:48;;;;;;;5.05;3.45;;;16.40;60.50;;;;;;2454330;55;20974;-83
2021/08/25 05:53:14;;;;;;;7.00;4.28;;;16.40;60.70;;;;;;2475228;55;20984;-84
2021/08/25 05:55:40;;;;;;;6.72;4.18;;;16.50;61.00;;;;;;2228827;55;20976;-83
2021/08/25 05:58:07;;;;;;;7.07;4.53;;;16.40;61.10;;;;;;2260932;55;21512;-84
2021/08/25 06:00:33;;;;;;;7.47;4.53;;;16.50;61.40;;;;;;2451602;55;20960;-86
2021/08/25 06:02:59;;;;;;;5.93;4.30;;;16.50;61.50;;;;;;2458445;55;21032;-84
2021/08/25 06:05:26;;;;;;;6.20;4.43;;;16.60;61.80;;;;;;2470956;55;21001;-83
2021/08/25 06:07:53;;;;;;;6.80;4.15;;;16.70;62.00;;;;;;2449356;55;21586;-85
2021/08/25 06:10:19;;;;;;;6.65;4.60;;;16.70;62.10;;;;;;2449308;55;21099;-83
2021/08/25 06:12:45;;;;;;;8.43;4.90;;;16.70;62.00;;;;;;2468663;54;21149;-81
2021/08/25 06:15:12;;;;;;;6.82;4.30;;;16.80;62.00;;;;;;2460234;55;20956;-83
2021/08/25 06:17:38;;;;;;;7.25;4.85;;;16.80;61.90;;;;;;2474091;55;22051;-83
2021/08/25 06:20:05;;;;;;;6.00;3.78;;;16.80;61.80;;;;;;2454435;55;21020;-84
2021/08/25 06:22:32;;;;;;;7.30;4.50;;;16.90;61.70;;;;;;2472720;54;20961;-83
2021/08/25 06:24:58;;;;;;;6.62;4.43;;;16.90;61.70;;;;;;2456566;55;21036;-85
2021/08/25 06:27:26;;;;;;;6.18;4.62;;;16.90;61.70;;;;;;2469993;55;20950;-83
2021/08/25 06:29:52;;;;;;;9.43;5.25;;;17.00;61.70;;;;;;2457030;55;21380;-84
2021/08/25 06:32:19;;;;;;;6.65;4.37;;;17.00;61.40;;;;;;2449228;55;21020;-84
2021/08/25 06:34:45;;;;;;;6.62;4.65;;;17.00;61.40;;;;;;2228758;55;20972;-84
2021/08/25 06:37:11;;;;;;;6.60;4.18;;;17.20;61.60;;;;;;2479485;55;20965;-83
2021/08/25 06:39:37;;;;;;;6.78;4.90;;;17.10;61.50;;;;;;2448704;55;20952;-84
2021/08/25 06:42:04;;;;;;;6.22;4.30;;;17.10;61.50;;;;;;2464833;55;22077;-83
2021/08/25 06:44:31;;;;;;;6.50;4.60;;;17.10;61.60;;;;;;2463159;55;22172;-84
2021/08/25 06:46:57;;;;;;;6.85;4.65;;;17.20;61.70;;;;;;2449118;55;21951;-84
2021/08/25 06:49:24;;;;;;;6.15;4.40;;;17.20;61.70;;;;;;2248900;55;20954;-84
2021/08/25 06:51:50;;;;;;;6.62;4.65;;;17.20;61.70;;;;;;2459127;55;21020;-84
2021/08/25 06:54:17;;;;;;;6.55;4.75;;;17.20;62.50;;;;;;2449399;55;20956;-85
2021/08/25 06:56:43;;;;;;;6.93;4.32;;;17.30;62.00;;;;;;2256279;55;20985;-84
2021/08/25 06:59:09;;;;;;;6.65;4.57;;;17.30;62.20;;;;;;2465534;55;21035;-85
2021/08/25 07:01:36;;;;;;;8.75;4.80;;;17.40;62.50;;;;;;2472282;55;21046;-84
2021/08/25 07:04:02;;;;;;;7.50;5.32;;;17.50;63.00;;;;;;2255472;55;22467;-85
2021/08/25 07:06:29;;;;;;;6.57;4.53;;;17.60;63.40;;;;;;2255246;55;20984;-83
2021/08/25 07:08:55;;;;;;;8.15;4.50;;;17.80;63.60;;;;;;2451219;55;20971;-85
2021/08/25 07:11:22;;;;;;;6.18;4.57;;;17.90;64.30;;;;;;2449824;55;21127;-83
2021/08/25 07:13:48;;;;;;;6.82;4.45;;;18.10;63.80;;;;;;2474914;54;20982;-85
2021/08/25 07:16:16;;;;;;;7.45;4.70;;;18.20;63.80;;;;;;2460373;55;21403;-85
2021/08/25 07:18:47;;;;;;;6.32;4.50;;;18.50;64.10;;;;;;2471424;55;21010;-84
2021/08/25 07:21:13;;;;;;;5.97;3.87;;;18.60;64.20;;;;;;2260785;55;21996;-85
2021/08/25 07:23:40;;;;;;;4.80;3.60;;;18.80;64.00;;;;;;2270572;55;20973;-84
2021/08/25 07:26:06;;;;;;;5.87;3.65;;;18.90;63.70;;;;;;2466436;55;21024;-85
2021/08/25 07:28:32;;;;;;;6.55;4.05;;;19.00;63.60;;;;;;2454713;55;21012;-84
2021/08/25 07:30:58;;;;;;;5.80;3.75;;;19.10;63.30;;;;;;2474938;55;22068;-83
2021/08/25 07:33:25;;;;;;;5.20;3.58;;;19.20;63.10;;;;;;2475076;55;21085;-83
2021/08/25 07:35:51;;;;;;;5.95;4.03;;;19.30;62.90;;;;;;2256828;55;20962;-83
2021/08/25 07:38:17;;;;;;;5.30;3.78;;;19.40;62.80;;;;;;2470667;55;21955;-84
2021/08/25 07:40:44;;;;;;;6.20;4.18;;;19.50;62.50;;;;;;2465259;55;20991;-83
2021/08/25 07:43:10;;;;;;;6.20;4.45;;;19.50;62.20;;;;;;2227830;55;21048;-82
2021/08/25 07:45:37;;;;;;;5.37;4.12;;;19.60;62.20;;;;;;2475970;55;21917;-82
2021/08/25 07:48:05;;;;;;;7.10;4.53;;;19.60;62.00;;;;;;2255406;55;20985;-83
2021/08/25 07:50:31;;;;;;;7.32;4.22;;;19.70;61.90;;;;;;2452914;55;20944;-83
2021/08/25 07:52:57;;;;;;;5.30;3.85;;;19.70;61.70;;;;;;2451063;55;21008;-83
2021/08/25 07:55:23;;;;;;;5.93;4.37;;;19.70;61.60;;;;;;2252834;55;20952;-82
2021/08/25 07:57:50;;;;;;;5.90;4.28;;;19.80;61.60;;;;;;2476431;55;21036;-81
2021/08/25 08:00:16;;;;;;;6.55;4.12;;;19.80;61.50;;;;;;2478128;55;20972;-83
2021/08/25 08:02:43;;;;;;;6.47;4.10;;;19.80;61.50;;;;;;2262076;55;21030;-84
2021/08/25 08:05:10;;;;;;;8.27;4.10;;;19.90;61.50;;;;;;2231360;55;21037;-84
2021/08/25 08:07:37;;;;;;;5.62;3.80;;;19.90;61.40;;;;;;2447358;55;20984;-82
2021/08/25 08:10:04;;;;;;;5.35;3.90;;;19.90;61.50;;;;;;2244679;55;20950;-83
2021/08/25 08:12:30;;;;;;;5.75;4.03;;;20.00;61.90;;;;;;2463268;55;20976;-82
2021/08/25 08:14:57;;;;;;;5.75;3.85;;;20.20;62.20;;;;;;2469450;55;21023;-84
2021/08/25 08:17:23;;;;;;;5.47;3.62;;;20.20;62.00;;;;;;2219314;55;20944;-83
2021/08/25 08:19:50;;;;;;;7.57;3.83;;;20.30;62.10;;;;;;2227794;55;21442;-83
2021/08/25 08:22:16;;;;;;;5.55;3.55;;;20.40;61.90;;;;;;2447218;55;20969;-84
2021/08/25 08:24:42;;;;;;;6.18;3.75;;;20.50;61.60;;;;;;2446043;55;21837;-85
2021/08/25 08:27:08;;;;;;;7.35;3.92;;;20.60;61.40;;;;;;2446958;55;21932;-85
2021/08/25 08:29:35;;;;;;;4.55;3.10;;;20.70;61.20;;;;;;2463994;55;21795;-84
2021/08/25 08:32:01;;;;;;;4.93;3.12;;;20.70;60.80;;;;;;2237327;55;21987;-84
2021/08/25 08:34:28;;;;;;;6.32;3.25;;;20.70;60.50;;;;;;2448058;55;20956;-84
2021/08/25 08:36:54;;;;;;;5.30;3.28;;;20.80;61.40;;;;;;2426323;55;21555;-84
2021/08/25 08:39:20;;;;;;;4.85;3.05;;;20.80;60.80;;;;;;2448953;55;21099;-83
2021/08/25 08:41:47;;;;;;;4.47;3.05;;;20.90;60.80;;;;;;2448003;55;20984;-83
2021/08/25 08:44:17;;;;;;;6.10;3.03;;;20.90;60.50;;;;;;2237069;55;21016;-85
2021/08/25 08:46:44;;;;;;;3.87;2.80;;;21.00;60.10;;;;;;2252309;55;21020;-83
2021/08/25 08:49:10;;;;;;;5.05;3.37;;;21.00;60.10;;;;;;2453843;55;21963;-83
2021/08/25 08:51:39;;;;;;;3.85;2.75;;;21.00;60.20;;;;;;2453162;55;20963;-83
2021/08/25 08:54:06;;;;;;;4.07;2.83;;;21.10;60.40;;;;;;2475473;55;21082;-81
2021/08/25 08:56:32;;;;;;;3.90;2.55;;;21.20;60.40;;;;;;2236528;55;20964;-82
2021/08/25 08:59:00;;;;;;;4.20;2.80;;;21.30;60.40;;;;;;2259004;55;21632;-83
2021/08/25 09:01:27;;;;;;;6.35;2.85;;;21.40;60.70;;;;;;2231873;55;20960;-82
2021/08/25 09:03:54;;;;;;;4.22;2.78;;;21.50;60.70;;;;;;2457050;55;20970;-82
2021/08/25 09:06:20;;;;;;;5.40;3.08;;;21.60;60.60;;;;;;2475567;55;21645;-83
2021/08/25 09:08:55;;;;;;;3.75;2.55;;;21.70;60.30;;;;;;2482104;55;21566;-83
2021/08/25 09:11:22;;;;;;;4.95;2.80;;;21.80;60.00;;;;;;2257967;55;21037;-82
2021/08/25 09:13:50;;;;;;;4.12;2.62;;;21.90;59.90;;;;;;2463273;55;21952;-82
2021/08/25 09:16:32;;;;;;;4.65;2.92;;;22.00;59.80;;;;;;2477165;55;21068;-82
2021/08/25 09:19:09;;;;;;;4.05;2.37;;;22.20;59.60;;;;;;2479530;55;21317;-83
2021/08/25 09:21:47;;;;;;;3.83;2.37;;;22.20;59.70;;;;;;2433134;55;21039;-84
2021/08/25 09:24:13;;;;;;;5.22;2.80;;;22.30;59.70;;;;;;2463013;55;20990;-83
2021/08/25 09:27:07;;;;;;;4.87;2.65;;;22.30;59.70;;;;;;2269029;55;21078;-82
2021/08/25 09:29:36;;;;;;;4.00;2.45;;;22.50;59.30;;;;;;2444843;55;21740;-85
2021/08/25 09:32:02;;;;;;;4.37;3.03;;;22.60;59.60;;;;;;2480854;55;21125;-84
2021/08/25 09:34:33;;;;;;;4.97;2.78;;;22.70;59.50;;;;;;2459714;55;22049;-83
2021/08/25 09:37:14;;;;;;;4.53;2.70;;;22.80;59.00;;;;;;2231148;55;21083;-84
2021/08/25 09:39:50;;;;;;;5.60;3.70;;;22.80;58.50;;;;;;2435549;55;21007;-82
2021/08/25 09:42:24;;;;;;;7.25;3.15;;;22.90;58.50;;;;;;2489002;55;21291;-81
2021/08/25 09:45:04;;;;;;;6.18;3.28;;;23.00;58.60;;;;;;2247149;55;21021;-83
2021/08/25 09:47:59;;;;;;;4.35;3.00;;;23.00;57.90;;;;;;2476354;55;20969;-82
2021/08/25 09:50:26;;;;;;;4.53;2.62;;;23.10;57.80;;;;;;2456559;55;21056;-83
2021/08/25 09:52:54;;;;;;;3.87;2.62;;;23.10;58.10;;;;;;2234104;55;22010;-82
2021/08/25 09:55:33;;;;;;;4.22;2.90;;;23.10;57.90;;;;;;2481541;55;20962;-83
2021/08/25 09:58:00;;;;;;;5.50;3.22;;;23.20;57.50;;;;;;2464061;55;20980;-82
2021/08/25 10:00:27;;;;;;;4.07;2.62;;;23.20;57.80;;;;;;2487019;55;21526;-81
2021/08/25 10:02:53;;;;;;;4.75;2.60;;;23.30;57.70;;;;;;2256758;55;21020;-82
2021/08/25 10:05:25;;;;;;;4.07;2.45;;;23.30;57.70;;;;;;2457526;55;21710;-81
2021/08/25 10:07:52;;;;;;;4.90;2.53;;;23.40;57.40;;;;;;2483219;55;21025;-81
2021/08/25 10:10:19;;;;;;;4.07;2.65;;;23.40;57.60;;;;;;2483729;55;21469;-82
2021/08/25 10:12:51;;;;;;;4.30;2.47;;;23.50;57.50;;;;;;2477273;55;21040;-82
2021/08/25 10:18:49;;;;;;;3.95;2.65;;;23.60;57.30;;;;;;2237996;55;21022;-83
2021/08/25 10:28:04;;;;;;;4.75;2.08;;;23.70;57.10;;;;;;2236757;55;20961;-82
2021/08/25 10:31:16;;;;;;;4.20;2.28;;;23.90;57.70;;;;;;2484191;55;21029;-82
2021/08/25 10:34:12;;;;;;;4.35;2.30;;;24.00;56.50;;;;;;2492875;55;21371;-82
2021/08/25 10:36:38;;;;;;;4.50;2.22;;;24.00;56.30;;;;;;2461931;55;20936;-81
2021/08/25 10:39:30;;;;;;;3.60;2.30;;;23.90;56.50;;;;;;2493090;55;21049;-81
2021/08/25 10:41:57;;;;;;;4.22;2.42;;;24.00;56.30;;;;;;2453269;55;21703;-81
2021/08/25 10:47:58;;;;;;;3.90;2.30;;;24.00;56.60;;;;;;2478946;55;21092;-82
2021/08/25 10:50:52;;;;;;;4.37;2.22;;;24.10;56.50;;;;;;2455626;55;21738;-81
2021/08/25 10:54:19;;;;;;;3.90;2.40;;;24.20;56.10;;;;;;2237208;55;20952;-83
2021/08/25 10:56:46;;;;;;;4.15;2.40;;;24.20;56.20;;;;;;2462806;55;20973;-81
2021/08/25 10:59:17;;;;;;;4.43;2.28;;;24.30;56.50;;;;;;2266670;55;21071;-81
2021/08/25 11:01:44;;;;;;;4.12;2.92;;;24.30;56.40;;;;;;2477230;55;21009;-83
2021/08/25 11:04:15;;;;;;;4.35;2.90;;;24.40;56.50;;;;;;2247428;55;20980;-82
2021/08/25 11:06:52;;;;;;;3.60;2.22;;;24.50;56.50;;;;;;2265346;55;20991;-84
2021/08/25 11:09:26;;;;;;;4.75;2.45;;;24.60;56.60;;;;;;2470233;55;20990;-82
2021/08/25 11:12:18;;;;;;;4.07;2.50;;;24.70;56.60;;;;;;2480430;55;20929;-81
2021/08/25 11:14:52;;;;;;;4.25;2.33;;;24.80;57.00;;;;;;2236730;55;21594;-82
2021/08/25 11:17:23;;;;;;;3.85;2.12;;;24.90;56.60;;;;;;2458736;55;20984;-81
2021/08/25 11:19:59;;;;;;;4.22;2.30;;;25.10;56.60;;;;;;2459849;55;21099;-81
2021/08/25 11:25:10;;;;;;;3.72;2.10;;;25.10;56.30;;;;;;2393115;53;23723;-71
2021/08/25 11:27:44;;;;;;;4.72;2.92;;;25.30;55.80;;;;;;2319962;53;21017;-70
2021/08/25 11:30:17;;;;;;;3.83;2.30;;;25.40;55.40;;;;;;2572961;53;21384;-74
2021/08/25 11:33:11;;;;;;;4.10;2.47;;;25.40;54.90;;;;;;2329965;53;21787;-70
2021/08/25 11:35:38;;;;;;;3.90;2.35;;;25.40;54.40;;;;;;2557509;53;20959;-72
2021/08/25 11:38:08;;;;;;;3.58;2.08;;;25.40;54.30;;;;;;2336145;53;20971;-70
2021/08/25 11:40:41;;;;;;;3.17;1.77;;;25.40;54.10;;;;;;2326142;54;20998;-70
2021/08/25 11:43:19;;;;;;;4.00;2.28;;;25.40;53.90;;;;;;2360801;54;20962;-71
2021/08/25 11:45:48;;;;;;;4.75;2.40;;;25.40;53.80;;;;;;2435239;53;21049;-73
2021/08/25 11:48:33;;;;;;;3.92;2.22;;;25.30;53.90;;;;;;2353262;53;20994;-71
2021/08/25 11:50:59;;;;;;;5.57;2.37;;;25.30;54.00;;;;;;2401355;53;21482;-73
2021/08/25 11:53:27;;;;;;;3.58;2.47;;;25.30;54.30;;;;;;2356744;54;20982;-70
2021/08/25 11:55:58;;;;;;;3.87;2.47;;;25.30;54.10;;;;;;2450294;53;21043;-71
2021/08/25 11:58:30;;;;;;;3.57;2.03;;;25.30;53.80;;;;;;2354183;53;20967;-72
2021/08/25 12:00:57;;;;;;;3.30;2.00;;;25.30;53.60;;;;;;2349691;53;21810;-73
2021/08/25 12:03:52;;;;;;;3.60;2.25;;;25.20;53.60;;;;;;2348913;53;20977;-72
2021/08/25 12:06:21;;;;;;;3.97;2.17;;;25.30;53.30;;;;;;2351475;53;21029;-71
2021/08/25 12:08:49;;;;;;;3.90;2.40;;;25.30;54.00;;;;;;2356728;54;20910;-73
2021/08/25 12:11:17;;;;;;;3.70;2.40;;;25.30;54.00;;;;;;2605651;53;20919;-70
2021/08/25 12:13:47;;;;;;;3.78;2.37;;;25.40;54.60;;;;;;2350691;53;21871;-73
2021/08/25 12:16:24;;;;;;;4.60;2.10;;;25.50;53.80;;;;;;2354295;53;20934;-71
2021/08/25 12:18:58;;;;;;;4.03;2.25;;;25.60;53.50;;;;;;2356578;54;20894;-70
2021/08/25 12:21:28;;;;;;;4.50;2.40;;;25.70;53.40;;;;;;2374921;53;21840;-73
2021/08/25 12:24:01;;;;;;;3.85;2.30;;;25.70;53.30;;;;;;2340606;53;20969;-73
2021/08/25 12:26:29;;;;;;;3.67;2.03;;;25.80;53.20;;;;;;2592727;53;20931;-69
2021/08/25 12:28:56;;;;;;;4.87;2.10;;;25.90;53.20;;;;;;2349736;53;20915;-70
2021/08/25 12:31:34;;;;;;;2.90;1.50;;;26.00;53.10;;;;;;2417909;53;20945;-73
2021/08/25 12:34:14;;;;;;;4.28;1.42;;;26.00;52.50;;;;;;2565716;53;20942;-70
2021/08/25 12:36:53;;;;;;;4.55;1.60;;;26.10;52.50;;;;;;2324387;54;20940;-74
2021/08/25 12:39:34;;;;;;;3.60;1.60;;;26.20;52.70;;;;;;2311853;53;20939;-70
2021/08/25 12:42:00;;;;;;;3.33;1.65;;;26.30;52.40;;;;;;2547423;53;21815;-72
2021/08/25 12:44:30;;;;;;;3.60;1.95;;;26.30;52.10;;;;;;2464008;53;20968;-72
2021/08/25 12:47:00;;;;;;;4.35;1.95;;;26.30;51.70;;;;;;2305190;54;21481;-71
2021/08/25 12:49:28;;;;;;;3.67;2.03;;;26.40;52.20;;;;;;2314689;53;21427;-71
2021/08/25 12:51:55;;;;;;;4.53;2.08;;;26.40;52.00;;;;;;2341090;53;21009;-71
2021/08/25 12:54:22;;;;;;;3.15;1.62;;;26.50;51.50;;;;;;2356402;54;21007;-71
2021/08/25 12:56:49;;;;;;;4.10;1.90;;;26.60;51.30;;;;;;2356754;53;21335;-70
2021/08/25 12:59:16;;;;;;;4.05;2.08;;;26.50;51.00;;;;;;2355362;53;20957;-70
2021/08/25 13:01:43;;;;;;;3.40;1.85;;;26.60;50.90;;;;;;2482914;53;21812;-69
2021/08/25 13:04:10;;;;;;;3.00;1.73;;;26.50;50.70;;;;;;2505261;52;20943;-71
2021/08/25 13:06:37;;;;;;;4.32;1.95;;;26.50;50.50;;;;;;2603784;53;21009;-71
2021/08/25 13:09:04;;;;;;;3.53;2.00;;;26.50;50.20;;;;;;2353968;53;22103;-69
2021/08/25 13:11:33;;;;;;;3.65;1.67;;;26.40;50.10;;;;;;2608449;52;21865;-69